Terminal Aerodrome Forecast
Issued by NWS

Home | Current Version | Previous Version | Text Only | Print | Product List | Glossary On
Versions: 1 2 3 4 5 6 7 8 9 10 11 12 13 14 15 16 17 18 19 20 21 22 23 24 25 26 27 28 29 30 31 32 33 34 35 36 37 38 39 40 41 42 43 44 45 46
000
FTUS43 KDMX 011152 CCA
TAFOTM
TAF COR
KOTM 011152Z 0112/0212 06008KT 6SM BR OVC004
      TEMPO 0112/0114 2SM BR OVC003
     FM011700 03012KT 3SM -RA BR OVC003
     FM012200 01012KT 2SM BR VCSH OVC010
     FM020300 35007KT 5SM BR OVC030
     FM021000 02004KT 5SM BR SCT005 BKN025=

USA.gov is the U.S. government's official web portal to all federal, state and local government web resources and services.